Time;durP1;ratioP1;P1;durP2;ratioP2;P2;SDS_P1;SDS_P2;PMS_P1;PMS_P2;Temp;Humidity;BMP_temperature;BMP_pressure;BME280_temperature;BME280_humidity;BME280_pressure;Samples;Min_cycle;Max_cycle;Signal;HPM_P1;HPM_P2
2021/12/20 00:02:25;;;;;;;0.47;0.47;;;2.30;99.90;;;;;;5076592;28;20472;-84
2021/12/20 00:04:53;;;;;;;0.30;0.30;;;2.40;99.90;;;;;;5076664;28;20460;-84
2021/12/20 00:07:20;;;;;;;0.30;0.30;;;2.40;99.90;;;;;;5076496;28;20449;-84
2021/12/20 00:09:47;;;;;;;0.30;0.20;;;2.40;99.90;;;;;;5076624;28;20448;-83
2021/12/20 00:12:14;;;;;;;0.63;0.63;;;2.40;99.90;;;;;;5076447;28;20496;-84
2021/12/20 00:14:42;;;;;;;0.30;0.30;;;2.40;99.90;;;;;;5076254;28;20971;-84
2021/12/20 00:17:09;;;;;;;0.87;0.87;;;2.40;99.90;;;;;;5076296;28;20437;-84
2021/12/20 00:19:35;;;;;;;0.37;0.30;;;2.50;99.90;;;;;;5076240;28;20481;-84
2021/12/20 00:22:02;;;;;;;1.07;1.07;;;2.40;99.90;;;;;;5076138;28;20800;-84
2021/12/20 00:24:29;;;;;;;1.40;0.87;;;2.40;99.90;;;;;;5076365;28;20448;-84
2021/12/20 00:26:56;;;;;;;0.53;0.53;;;2.40;99.90;;;;;;5076019;28;20429;-83
2021/12/20 00:29:22;;;;;;;0.30;0.20;;;2.40;99.90;;;;;;5076200;28;20449;-84
2021/12/20 00:31:51;;;;;;;0.30;0.20;;;2.40;99.90;;;;;;5075897;28;20465;-84
2021/12/20 00:34:17;;;;;;;0.33;0.33;;;2.40;99.90;;;;;;5075940;28;20449;-84
2021/12/20 00:36:44;;;;;;;0.97;0.97;;;2.40;99.90;;;;;;5075642;28;20487;-83
2021/12/20 00:41:57;;;;;;;0.30;0.30;;;2.50;99.90;;;;;;5058503;28;20452;-84
2021/12/20 00:44:24;;;;;;;0.50;0.50;;;2.40;99.90;;;;;;5075752;28;20944;-84
2021/12/20 00:46:52;;;;;;;0.30;0.30;;;2.50;99.90;;;;;;5075664;28;20440;-84
2021/12/20 00:49:19;;;;;;;0.80;0.80;;;2.50;99.90;;;;;;5075549;28;20433;-84
2021/12/20 00:51:46;;;;;;;0.30;0.20;;;2.50;99.90;;;;;;5075511;28;20456;-84
2021/12/20 00:54:12;;;;;;;1.17;1.07;;;2.50;99.90;;;;;;5074745;28;20456;-84
2021/12/20 00:56:39;;;;;;;0.40;0.40;;;2.50;99.90;;;;;;5075549;28;20448;-84
2021/12/20 00:59:07;;;;;;;0.40;0.40;;;2.50;99.90;;;;;;5075263;28;20568;-84
2021/12/20 01:01:34;;;;;;;0.50;0.50;;;2.50;99.90;;;;;;5075722;28;20457;-84
2021/12/20 01:04:02;;;;;;;0.30;0.30;;;2.50;99.90;;;;;;5075560;28;20887;-84
2021/12/20 01:06:29;;;;;;;0.30;0.27;;;2.50;99.90;;;;;;5075279;28;20437;-84
2021/12/20 01:08:56;;;;;;;0.60;0.60;;;2.50;99.90;;;;;;5075485;28;20452;-84
2021/12/20 01:11:26;;;;;;;0.70;0.70;;;2.50;99.90;;;;;;5075122;28;20816;-84
2021/12/20 01:13:54;;;;;;;0.30;0.30;;;2.50;99.90;;;;;;5075395;28;20452;-84
2021/12/20 01:16:29;;;;;;;0.40;0.40;;;2.40;99.90;;;;;;5075086;28;20902;-84
2021/12/20 01:18:56;;;;;;;0.30;0.30;;;2.40;99.90;;;;;;5075535;28;20494;-84
2021/12/20 01:21:25;;;;;;;0.40;0.40;;;2.40;99.90;;;;;;5074887;28;20453;-84
2021/12/20 01:23:52;;;;;;;0.30;0.30;;;2.30;99.90;;;;;;5075333;28;20518;-84
2021/12/20 01:26:19;;;;;;;0.30;0.20;;;2.30;99.90;;;;;;5074810;28;20453;-84
2021/12/20 01:28:45;;;;;;;0.30;0.30;;;2.40;99.90;;;;;;5075116;28;20460;-84
2021/12/20 01:31:12;;;;;;;0.30;0.30;;;2.40;99.90;;;;;;5074931;28;20468;-84
2021/12/20 01:33:39;;;;;;;0.50;0.50;;;2.40;99.90;;;;;;5075070;28;20444;-84
2021/12/20 01:36:06;;;;;;;1.53;1.43;;;2.40;99.90;;;;;;5074741;28;20485;-84
2021/12/20 01:38:34;;;;;;;0.30;0.30;;;2.50;99.90;;;;;;5074881;28;20453;-84
2021/12/20 01:41:00;;;;;;;0.40;0.40;;;2.50;99.90;;;;;;5074470;28;20480;-84
2021/12/20 01:43:27;;;;;;;0.80;0.80;;;2.50;99.90;;;;;;5074840;28;20467;-84
2021/12/20 01:45:54;;;;;;;0.30;0.30;;;2.60;99.90;;;;;;5074541;28;20441;-84
2021/12/20 01:48:22;;;;;;;0.40;0.40;;;2.60;99.90;;;;;;5074758;28;20450;-84
2021/12/20 01:53:36;;;;;;;0.60;0.60;;;2.50;99.90;;;;;;5074741;28;20490;-84
2021/12/20 01:56:04;;;;;;;0.30;0.20;;;2.50;99.90;;;;;;5074549;28;20455;-84
2021/12/20 01:58:32;;;;;;;0.30;0.30;;;2.50;99.90;;;;;;5074634;28;20475;-84
2021/12/20 02:03:50;;;;;;;0.30;0.30;;;2.50;99.90;;;;;;5074231;28;20405;-84
2021/12/20 02:06:23;;;;;;;0.30;0.30;;;2.50;99.90;;;;;;5074223;28;20465;-84
2021/12/20 02:08:51;;;;;;;0.30;0.30;;;2.40;99.90;;;;;;5074353;28;20440;-84
2021/12/20 02:11:21;;;;;;;0.30;0.30;;;2.40;99.90;;;;;;5073985;28;20464;-84
2021/12/20 02:13:49;;;;;;;3.43;0.73;;;2.40;99.90;;;;;;5074238;28;20452;-84
2021/12/20 02:16:16;;;;;;;0.50;0.50;;;2.40;99.90;;;;;;5074022;28;20441;-84
2021/12/20 02:18:43;;;;;;;0.43;0.43;;;2.40;99.90;;;;;;5074114;28;20472;-84
2021/12/20 02:21:11;;;;;;;0.47;0.47;;;2.50;99.90;;;;;;5073875;28;20489;-84
2021/12/20 02:23:38;;;;;;;0.50;0.50;;;2.50;99.90;;;;;;5074060;28;20431;-84
2021/12/20 02:26:06;;;;;;;0.33;0.30;;;2.50;99.90;;;;;;5074089;28;20445;-84
2021/12/20 02:28:37;;;;;;;0.30;0.30;;;2.50;99.90;;;;;;5073969;28;20815;-84
2021/12/20 02:39:20;;;;;;;0.30;0.30;;;2.50;99.90;;;;;;5073972;28;20401;-84
2021/12/20 02:41:47;;;;;;;0.30;0.27;;;2.40;99.90;;;;;;5073795;28;20842;-84
2021/12/20 02:44:18;;;;;;;0.40;0.40;;;2.40;99.90;;;;;;5073601;28;20440;-83
2021/12/20 02:46:50;;;;;;;0.83;0.80;;;2.40;99.90;;;;;;5074216;28;20528;-83
2021/12/20 02:49:19;;;;;;;0.30;0.30;;;2.40;99.90;;;;;;5073930;28;20459;-84
2021/12/20 02:51:50;;;;;;;0.50;0.50;;;2.50;99.90;;;;;;5073345;28;20457;-84
2021/12/20 02:54:18;;;;;;;0.30;0.30;;;2.50;99.90;;;;;;5074230;28;20445;-83
2021/12/20 02:56:45;;;;;;;1.27;0.50;;;2.50;99.90;;;;;;5073674;28;20456;-84
2021/12/20 02:59:13;;;;;;;0.60;0.60;;;2.50;99.90;;;;;;5073691;28;20456;-83
2021/12/20 03:01:42;;;;;;;0.30;0.30;;;2.50;99.90;;;;;;5073585;28;20847;-84
2021/12/20 03:04:09;;;;;;;0.30;0.30;;;2.50;99.90;;;;;;5073590;28;20444;-84
2021/12/20 03:06:39;;;;;;;0.90;0.90;;;2.50;99.90;;;;;;5073564;28;20449;-84
2021/12/20 03:09:09;;;;;;;0.30;0.30;;;2.50;99.90;;;;;;5073498;28;20434;-84
2021/12/20 03:11:36;;;;;;;0.30;0.20;;;2.50;99.90;;;;;;5073438;28;20511;-84
2021/12/20 03:14:13;;;;;;;0.30;0.30;;;2.50;99.90;;;;;;5073149;28;20506;-83
2021/12/20 03:16:40;;;;;;;0.30;0.30;;;2.50;99.90;;;;;;5073394;28;20490;-84
2021/12/20 03:19:06;;;;;;;0.30;0.30;;;2.50;99.90;;;;;;5077359;28;20449;-83
2021/12/20 03:21:33;;;;;;;0.40;0.40;;;2.50;99.90;;;;;;5077710;28;20491;-84
2021/12/20 03:24:00;;;;;;;0.30;0.30;;;2.50;99.90;;;;;;5077292;28;20432;-84
2021/12/20 03:26:28;;;;;;;0.30;0.30;;;2.50;99.90;;;;;;5077504;28;20456;-84
2021/12/20 03:28:55;;;;;;;1.07;0.70;;;2.50;99.90;;;;;;5077182;28;20452;-84
2021/12/20 03:31:23;;;;;;;0.43;0.43;;;2.50;99.90;;;;;;5077246;28;20468;-83
2021/12/20 03:33:49;;;;;;;0.30;0.27;;;2.50;99.90;;;;;;5077407;28;20453;-84
2021/12/20 03:36:16;;;;;;;0.60;0.60;;;2.50;99.90;;;;;;5076815;28;20491;-84
2021/12/20 03:38:43;;;;;;;0.40;0.40;;;2.50;99.90;;;;;;5076889;28;21062;-84
2021/12/20 03:41:10;;;;;;;0.30;0.30;;;2.50;99.90;;;;;;5077026;28;20503;-84
2021/12/20 03:43:38;;;;;;;0.47;0.47;;;2.50;99.90;;;;;;5077234;28;20457;-84
2021/12/20 03:46:06;;;;;;;0.77;0.77;;;2.50;99.90;;;;;;5077191;28;20460;-84
2021/12/20 03:48:34;;;;;;;0.30;0.30;;;2.50;99.90;;;;;;5076681;28;20452;-83
2021/12/20 03:51:02;;;;;;;0.60;0.60;;;2.40;99.90;;;;;;5076893;28;20467;-84
2021/12/20 03:53:29;;;;;;;0.30;0.20;;;2.50;99.90;;;;;;5076892;28;20473;-84
2021/12/20 03:55:56;;;;;;;0.50;0.50;;;2.50;99.90;;;;;;5076862;28;20445;-83
2021/12/20 03:58:23;;;;;;;0.30;0.30;;;2.50;99.90;;;;;;5076797;28;20452;-84
2021/12/20 04:00:51;;;;;;;0.60;0.60;;;2.50;99.90;;;;;;5076641;28;20488;-83
2021/12/20 04:03:18;;;;;;;0.70;0.57;;;2.50;99.90;;;;;;5076769;28;20448;-84
2021/12/20 04:05:45;;;;;;;0.30;0.30;;;2.50;99.90;;;;;;5076467;28;20444;-84
2021/12/20 04:08:11;;;;;;;0.97;0.97;;;2.60;99.90;;;;;;5076417;28;20958;-84
2021/12/20 04:10:38;;;;;;;0.30;0.30;;;2.50;99.90;;;;;;5076197;28;20445;-84
2021/12/20 04:13:05;;;;;;;0.30;0.30;;;2.60;99.90;;;;;;5076569;28;20449;-83
2021/12/20 04:15:32;;;;;;;0.30;0.30;;;2.50;99.90;;;;;;5076441;28;20966;-84
2021/12/20 04:18:00;;;;;;;0.30;0.30;;;2.50;99.90;;;;;;5076503;28;20463;-84
2021/12/20 04:20:27;;;;;;;0.57;0.57;;;2.50;99.90;;;;;;5076431;28;20483;-84
2021/12/20 04:22:54;;;;;;;0.30;0.30;;;2.50;99.90;;;;;;5076243;28;20472;-84
2021/12/20 04:25:20;;;;;;;0.30;0.30;;;2.50;99.90;;;;;;5076046;28;20924;-83
2021/12/20 04:27:47;;;;;;;0.30;0.30;;;2.50;99.90;;;;;;5076050;28;20429;-83
2021/12/20 04:30:14;;;;;;;0.50;0.50;;;2.50;99.90;;;;;;5075925;28;20820;-84
2021/12/20 04:32:45;;;;;;;0.30;0.20;;;2.50;99.90;;;;;;5076117;28;20472;-84
2021/12/20 04:35:16;;;;;;;0.40;0.40;;;2.60;99.90;;;;;;5075408;28;20480;-84
2021/12/20 04:37:46;;;;;;;0.30;0.30;;;2.50;99.90;;;;;;5075779;28;20931;-84
2021/12/20 04:40:18;;;;;;;0.83;0.30;;;2.50;99.90;;;;;;5075807;28;20575;-84
2021/12/20 04:42:44;;;;;;;0.40;0.40;;;2.50;99.90;;;;;;5075906;28;20469;-84
2021/12/20 04:45:11;;;;;;;0.30;0.30;;;2.40;99.90;;;;;;5075915;28;20475;-84
2021/12/20 04:47:38;;;;;;;1.17;1.17;;;2.40;99.90;;;;;;5075854;28;20437;-84
2021/12/20 04:50:06;;;;;;;0.30;0.27;;;2.50;99.90;;;;;;5075740;28;20455;-84
2021/12/20 04:52:35;;;;;;;0.47;0.47;;;2.50;99.90;;;;;;5075729;28;20472;-84
2021/12/20 04:55:02;;;;;;;0.47;0.47;;;2.50;99.90;;;;;;5075769;28;20515;-83
2021/12/20 04:57:29;;;;;;;0.30;0.30;;;2.40;99.90;;;;;;5075400;28;21101;-84
2021/12/20 04:59:56;;;;;;;0.30;0.30;;;2.40;99.90;;;;;;5075547;28;20449;-84
2021/12/20 05:02:22;;;;;;;0.30;0.20;;;2.40;99.90;;;;;;5075615;28;20465;-83
2021/12/20 05:04:49;;;;;;;1.27;1.17;;;2.40;99.90;;;;;;5075225;28;20840;-84
2021/12/20 05:07:16;;;;;;;0.30;0.20;;;2.50;99.90;;;;;;5075430;28;20449;-84
2021/12/20 05:09:44;;;;;;;0.50;0.50;;;2.50;99.90;;;;;;5075464;28;20460;-84
2021/12/20 05:12:12;;;;;;;0.40;0.33;;;2.50;99.90;;;;;;5075042;28;20472;-84
2021/12/20 05:14:41;;;;;;;0.30;0.30;;;2.50;99.90;;;;;;5075267;28;20821;-84
2021/12/20 05:17:08;;;;;;;0.30;0.20;;;2.60;99.90;;;;;;5075221;28;20445;-84
2021/12/20 05:19:35;;;;;;;0.30;0.30;;;2.50;99.90;;;;;;5075204;28;20453;-84
2021/12/20 05:22:02;;;;;;;0.30;0.20;;;2.50;99.90;;;;;;5075030;28;20747;-84
2021/12/20 05:24:29;;;;;;;0.80;0.80;;;2.50;99.90;;;;;;5075138;28;20440;-84
2021/12/20 05:26:57;;;;;;;0.30;0.30;;;2.50;99.90;;;;;;5075078;28;20449;-84
2021/12/20 05:29:25;;;;;;;0.30;0.27;;;2.50;99.90;;;;;;5075053;28;20453;-83
2021/12/20 05:31:52;;;;;;;0.30;0.27;;;2.50;99.90;;;;;;5074865;28;20457;-84
2021/12/20 05:34:19;;;;;;;0.30;0.30;;;2.50;99.90;;;;;;5075043;28;20453;-84
2021/12/20 05:36:46;;;;;;;1.07;0.97;;;2.50;99.90;;;;;;5074494;28;20473;-84
2021/12/20 05:39:13;;;;;;;0.47;0.47;;;2.50;99.90;;;;;;5074547;28;20452;-84
2021/12/20 05:41:40;;;;;;;0.30;0.30;;;2.50;99.90;;;;;;5073868;28;20503;-84
2021/12/20 05:44:08;;;;;;;0.83;0.50;;;2.60;99.90;;;;;;5074816;28;20444;-84
2021/12/20 05:46:35;;;;;;;0.40;0.40;;;2.60;99.90;;;;;;5074707;28;20449;-84
2021/12/20 05:49:01;;;;;;;0.40;0.40;;;2.60;99.90;;;;;;5074406;28;20440;-84
2021/12/20 05:51:29;;;;;;;0.30;0.30;;;2.60;99.90;;;;;;5074167;28;20456;-84
2021/12/20 05:53:55;;;;;;;0.30;0.30;;;2.60;99.90;;;;;;5074555;28;20449;-84
2021/12/20 05:56:22;;;;;;;0.30;0.30;;;2.60;99.90;;;;;;5074206;28;20963;-84
2021/12/20 05:58:49;;;;;;;0.30;0.20;;;2.60;99.90;;;;;;5074461;28;20449;-84
2021/12/20 06:01:17;;;;;;;0.40;0.40;;;2.60;99.90;;;;;;5074308;28;20493;-84
2021/12/20 06:03:44;;;;;;;0.30;0.30;;;2.60;99.90;;;;;;5074983;28;20460;-84
2021/12/20 06:06:12;;;;;;;0.30;0.30;;;2.60;99.90;;;;;;5074287;28;20449;-84
2021/12/20 06:08:39;;;;;;;0.30;0.20;;;2.50;99.90;;;;;;5074047;28;20437;-84
2021/12/20 06:11:05;;;;;;;0.87;0.40;;;2.50;99.90;;;;;;5074149;28;20476;-84
2021/12/20 06:13:32;;;;;;;0.30;0.30;;;2.50;99.90;;;;;;5074233;28;20436;-84
2021/12/20 06:15:59;;;;;;;1.03;0.77;;;2.50;99.90;;;;;;5073802;28;20948;-84
2021/12/20 06:18:27;;;;;;;0.77;0.67;;;2.60;99.90;;;;;;5074157;28;20433;-85
2021/12/20 06:20:54;;;;;;;0.30;0.20;;;2.50;99.90;;;;;;5073626;28;20488;-84
2021/12/20 06:23:20;;;;;;;0.30;0.30;;;2.60;99.90;;;;;;5074112;28;20460;-84
2021/12/20 06:25:47;;;;;;;0.30;0.20;;;2.50;99.90;;;;;;5073990;28;20444;-84
2021/12/20 06:28:14;;;;;;;0.30;0.30;;;2.40;99.90;;;;;;5073992;28;20448;-84
2021/12/20 06:30:41;;;;;;;2.30;0.40;;;2.40;99.90;;;;;;5073959;28;20447;-84
2021/12/20 06:33:07;;;;;;;0.87;0.87;;;2.40;99.90;;;;;;5073863;28;20456;-84
2021/12/20 06:35:36;;;;;;;0.40;0.40;;;2.40;99.90;;;;;;5073296;28;21030;-84
2021/12/20 06:38:06;;;;;;;0.30;0.30;;;2.40;99.90;;;;;;5073753;28;20850;-84
2021/12/20 06:40:36;;;;;;;0.30;0.30;;;2.40;99.90;;;;;;5073751;28;20491;-84
2021/12/20 06:43:04;;;;;;;0.40;0.30;;;2.50;99.90;;;;;;5073778;28;20437;-84
2021/12/20 06:45:33;;;;;;;1.93;1.83;;;2.50;99.90;;;;;;5073482;28;20433;-84
2021/12/20 06:48:00;;;;;;;0.80;0.47;;;2.50;99.90;;;;;;5073704;28;20506;-84
2021/12/20 06:50:27;;;;;;;0.30;0.30;;;2.50;99.90;;;;;;5073369;28;20429;-84
2021/12/20 06:52:55;;;;;;;0.40;0.40;;;2.50;99.90;;;;;;5072710;28;20479;-84
2021/12/20 06:55:22;;;;;;;0.30;0.20;;;2.50;99.90;;;;;;5073590;28;20448;-84
2021/12/20 06:57:48;;;;;;;0.37;0.37;;;2.50;99.90;;;;;;5073268;28;20924;-84
2021/12/20 07:00:16;;;;;;;0.30;0.30;;;2.50;99.90;;;;;;5074430;28;20812;-84
2021/12/20 07:02:43;;;;;;;0.30;0.30;;;2.50;99.90;;;;;;5073360;28;20492;-84
2021/12/20 07:05:10;;;;;;;0.33;0.33;;;2.50;99.90;;;;;;5073504;28;20452;-84
2021/12/20 07:07:37;;;;;;;0.40;0.40;;;2.40;99.90;;;;;;5073454;28;20455;-84
2021/12/20 07:10:06;;;;;;;0.77;0.77;;;2.40;99.90;;;;;;5073426;28;20493;-84
2021/12/20 07:12:35;;;;;;;0.50;0.50;;;2.40;99.90;;;;;;5073090;28;20806;-84
2021/12/20 07:15:03;;;;;;;0.70;0.70;;;2.40;99.90;;;;;;5073387;28;20445;-84
2021/12/20 07:17:31;;;;;;;0.40;0.40;;;2.40;99.90;;;;;;5073313;28;20449;-84
2021/12/20 07:19:58;;;;;;;0.60;0.60;;;2.40;99.90;;;;;;5073354;28;20514;-84
2021/12/20 07:22:25;;;;;;;0.30;0.30;;;2.40;99.90;;;;;;5072866;28;20523;-84
2021/12/20 07:24:52;;;;;;;0.30;0.30;;;2.40;99.90;;;;;;5073353;28;20449;-84
2021/12/20 07:27:20;;;;;;;0.30;0.30;;;2.40;99.90;;;;;;5073313;28;20471;-84
2021/12/20 07:29:47;;;;;;;0.30;0.27;;;2.50;99.90;;;;;;5072958;28;20911;-84
2021/12/20 07:32:14;;;;;;;0.30;0.30;;;2.50;99.90;;;;;;5072820;28;20465;-84
2021/12/20 07:34:41;;;;;;;1.23;0.77;;;2.50;99.90;;;;;;5073669;28;20851;-85
2021/12/20 07:37:08;;;;;;;0.30;0.30;;;2.60;99.90;;;;;;5072664;28;21018;-85
2021/12/20 07:39:35;;;;;;;2.30;0.80;;;2.60;99.90;;;;;;5073261;28;20433;-85
2021/12/20 07:42:03;;;;;;;0.30;0.20;;;2.70;99.90;;;;;;5073201;28;20999;-85
2021/12/20 07:44:31;;;;;;;0.30;0.30;;;2.70;99.90;;;;;;5073260;28;20444;-85
2021/12/20 07:46:58;;;;;;;0.53;0.53;;;2.70;99.90;;;;;;5073226;28;20429;-84
2021/12/20 07:49:25;;;;;;;0.30;0.30;;;2.70;99.90;;;;;;5073267;28;20815;-84
2021/12/20 07:51:53;;;;;;;0.30;0.30;;;2.70;99.90;;;;;;5072870;28;20453;-84
2021/12/20 07:54:20;;;;;;;0.30;0.20;;;2.70;99.90;;;;;;5072838;28;20486;-85
2021/12/20 07:56:47;;;;;;;0.30;0.20;;;2.70;99.90;;;;;;5072942;28;20436;-85
2021/12/20 07:59:14;;;;;;;0.30;0.30;;;2.70;99.90;;;;;;5073070;28;20444;-85
2021/12/20 08:01:42;;;;;;;0.30;0.30;;;2.70;99.90;;;;;;5072586;28;20483;-85
2021/12/20 08:04:08;;;;;;;1.43;0.67;;;2.80;99.90;;;;;;5075101;28;20440;-84
2021/12/20 08:06:36;;;;;;;0.93;0.93;;;2.80;99.90;;;;;;5076628;28;20833;-84
2021/12/20 08:09:03;;;;;;;0.30;0.30;;;2.80;99.90;;;;;;5076672;28;20873;-84
2021/12/20 08:11:30;;;;;;;0.30;0.30;;;2.90;99.90;;;;;;5076605;28;20456;-85
2021/12/20 08:13:56;;;;;;;0.30;0.30;;;2.90;99.90;;;;;;5076606;28;20480;-84
2021/12/20 08:16:23;;;;;;;0.30;0.20;;;2.90;99.90;;;;;;5076536;28;20444;-85
2021/12/20 08:18:51;;;;;;;0.30;0.30;;;2.90;99.90;;;;;;5076408;28;20535;-84
2021/12/20 08:21:18;;;;;;;0.30;0.30;;;2.90;99.90;;;;;;5076272;28;20495;-84
2021/12/20 08:23:45;;;;;;;0.40;0.40;;;3.00;99.90;;;;;;5076132;28;20440;-85
2021/12/20 08:26:12;;;;;;;0.30;0.30;;;3.00;99.90;;;;;;5076207;28;20433;-85
2021/12/20 08:28:40;;;;;;;0.30;0.30;;;3.00;99.90;;;;;;5076316;28;20452;-85
2021/12/20 08:31:07;;;;;;;0.30;0.30;;;3.00;99.90;;;;;;5076266;28;20465;-84
2021/12/20 08:33:35;;;;;;;0.57;0.40;;;3.10;99.90;;;;;;5076293;28;20452;-85
2021/12/20 08:36:05;;;;;;;2.10;0.50;;;3.10;99.90;;;;;;5075851;28;20480;-84
2021/12/20 08:38:33;;;;;;;0.30;0.30;;;3.10;99.90;;;;;;5076140;28;20437;-84
2021/12/20 08:41:00;;;;;;;0.30;0.30;;;3.20;99.90;;;;;;5076021;28;20504;-85
2021/12/20 08:43:28;;;;;;;0.30;0.30;;;3.30;99.90;;;;;;5076067;28;20524;-85
2021/12/20 08:45:55;;;;;;;0.40;0.40;;;3.30;99.90;;;;;;5075979;28;20453;-85
2021/12/20 08:48:22;;;;;;;0.40;0.40;;;3.30;99.90;;;;;;5075892;28;20459;-84
2021/12/20 08:50:49;;;;;;;0.30;0.20;;;3.30;99.90;;;;;;5075800;28;20445;-85
2021/12/20 08:53:17;;;;;;;0.30;0.30;;;3.30;99.90;;;;;;5075640;28;20444;-84
2021/12/20 08:55:44;;;;;;;0.30;0.30;;;3.40;99.90;;;;;;5075585;28;20455;-84
2021/12/20 08:58:12;;;;;;;0.30;0.30;;;3.40;99.90;;;;;;5075790;28;20452;-84
2021/12/20 09:00:40;;;;;;;0.30;0.30;;;3.40;99.90;;;;;;5075651;28;20459;-85
2021/12/20 09:03:07;;;;;;;0.30;0.30;;;3.40;99.90;;;;;;5075782;28;20472;-84
2021/12/20 09:05:36;;;;;;;0.30;0.30;;;3.40;99.90;;;;;;5075294;28;20968;-85
2021/12/20 09:08:06;;;;;;;0.40;0.30;;;3.50;99.90;;;;;;5075513;28;20437;-84
2021/12/20 09:10:35;;;;;;;0.40;0.40;;;3.50;99.90;;;;;;5076479;28;20889;-85
2021/12/20 09:13:03;;;;;;;0.87;0.87;;;3.60;99.90;;;;;;5076820;28;20444;-84
2021/12/20 09:15:30;;;;;;;0.30;0.30;;;3.70;99.90;;;;;;5080003;28;20449;-84
2021/12/20 09:17:57;;;;;;;0.40;0.40;;;3.70;99.90;;;;;;5076100;28;20970;-84
2021/12/20 09:20:26;;;;;;;0.30;0.30;;;3.80;99.90;;;;;;5075669;28;20456;-85
2021/12/20 09:22:56;;;;;;;0.40;0.40;;;3.80;99.90;;;;;;5075316;28;20571;-85
2021/12/20 09:25:25;;;;;;;0.30;0.20;;;3.90;99.90;;;;;;5075660;28;20437;-85
2021/12/20 09:27:55;;;;;;;0.50;0.50;;;3.90;99.90;;;;;;5075100;28;20451;-84
2021/12/20 09:30:24;;;;;;;0.30;0.30;;;4.00;99.90;;;;;;5075375;28;20475;-85
2021/12/20 09:32:51;;;;;;;0.33;0.33;;;4.00;99.90;;;;;;5072194;28;20468;-84
2021/12/20 09:35:19;;;;;;;1.03;1.03;;;4.00;99.90;;;;;;5075088;28;20485;-84
2021/12/20 09:37:51;;;;;;;2.53;0.57;;;4.00;99.90;;;;;;5076150;28;20830;-84
2021/12/20 09:43:46;;;;;;;0.40;0.40;;;4.10;99.90;;;;;;5075673;28;20448;-84
2021/12/20 09:46:13;;;;;;;2.30;0.47;;;4.10;99.90;;;;;;5075097;28;20438;-85
2021/12/20 09:48:43;;;;;;;0.30;0.30;;;4.00;99.90;;;;;;5075590;28;20432;-84
2021/12/20 09:51:11;;;;;;;0.30;0.30;;;4.00;99.90;;;;;;5075166;28;20504;-84
2021/12/20 09:53:37;;;;;;;0.30;0.30;;;4.10;99.90;;;;;;5074904;28;20429;-85
2021/12/20 09:56:05;;;;;;;0.30;0.30;;;4.10;99.90;;;;;;5074726;28;20433;-84
2021/12/20 09:58:38;;;;;;;0.30;0.30;;;4.20;99.90;;;;;;5075081;28;20444;-85
2021/12/20 10:01:09;;;;;;;0.40;0.30;;;4.20;99.90;;;;;;5075044;28;20522;-84
2021/12/20 10:03:37;;;;;;;0.47;0.47;;;4.30;99.90;;;;;;5074418;28;20465;-84
2021/12/20 10:06:06;;;;;;;0.60;0.60;;;4.20;99.90;;;;;;5074457;28;20905;-84
2021/12/20 10:08:34;;;;;;;0.30;0.30;;;4.20;99.90;;;;;;5074032;28;20480;-84
2021/12/20 10:11:04;;;;;;;0.87;0.87;;;4.20;99.90;;;;;;5074554;28;20468;-84
2021/12/20 10:13:33;;;;;;;0.60;0.60;;;4.20;99.90;;;;;;5074382;28;20422;-84
2021/12/20 10:16:01;;;;;;;1.33;0.47;;;4.30;99.90;;;;;;5074501;28;20410;-85
2021/12/20 10:18:34;;;;;;;0.30;0.30;;;4.30;99.90;;;;;;5074980;28;20433;-85
2021/12/20 10:21:03;;;;;;;1.87;1.63;;;4.40;99.90;;;;;;5074394;28;20465;-85
2021/12/20 10:23:31;;;;;;;0.83;0.83;;;4.50;99.90;;;;;;5074089;28;20955;-85
2021/12/20 10:26:00;;;;;;;0.40;0.30;;;4.60;99.90;;;;;;5074382;28;20416;-85
2021/12/20 10:28:36;;;;;;;0.30;0.20;;;4.50;99.90;;;;;;5073996;28;20428;-85
2021/12/20 10:31:05;;;;;;;0.57;0.57;;;4.40;99.90;;;;;;5074502;28;20480;-85
2021/12/20 10:33:34;;;;;;;1.90;1.80;;;4.50;99.90;;;;;;5073916;28;20958;-85
2021/12/20 10:36:04;;;;;;;1.20;1.20;;;4.60;99.90;;;;;;5073659;28;20481;-84
2021/12/20 10:38:37;;;;;;;1.07;1.07;;;4.60;99.90;;;;;;5074030;28;20445;-85
2021/12/20 10:41:06;;;;;;;0.30;0.30;;;4.80;99.90;;;;;;5074637;28;20873;-85
2021/12/20 10:43:37;;;;;;;0.63;0.53;;;5.00;99.90;;;;;;5074008;28;20505;-84
2021/12/20 10:46:14;;;;;;;1.03;0.93;;;5.00;99.90;;;;;;5073684;28;20503;-85
2021/12/20 10:48:44;;;;;;;0.30;0.20;;;5.00;99.90;;;;;;5073687;28;20805;-84
2021/12/20 10:51:24;;;;;;;0.60;0.60;;;5.00;99.90;;;;;;5073605;28;20980;-84
2021/12/20 10:53:57;;;;;;;0.60;0.60;;;4.90;99.90;;;;;;5073593;28;20908;-85
2021/12/20 10:56:24;;;;;;;0.30;0.30;;;4.90;99.90;;;;;;5073916;28;20441;-83
2021/12/20 10:58:52;;;;;;;0.40;0.40;;;5.00;99.90;;;;;;5073537;28;20441;-83
2021/12/20 11:01:31;;;;;;;0.60;0.60;;;5.10;99.90;;;;;;5073187;28;20455;-84
2021/12/20 11:04:02;;;;;;;0.30;0.30;;;5.10;99.90;;;;;;5073732;28;20510;-87
2021/12/20 11:09:22;;;;;;;0.83;0.83;;;5.40;99.90;;;;;;5073725;28;20412;-85
2021/12/20 11:11:51;;;;;;;3.70;0.60;;;5.40;99.90;;;;;;5073465;28;20976;-85
2021/12/20 11:14:20;;;;;;;0.30;0.20;;;5.50;99.90;;;;;;5073762;28;20432;-84
2021/12/20 11:16:49;;;;;;;0.30;0.27;;;5.60;99.90;;;;;;5073924;28;20429;-84
2021/12/20 11:19:27;;;;;;;0.30;0.30;;;5.50;99.90;;;;;;5074746;28;20405;-85
2021/12/20 11:22:00;;;;;;;1.90;1.23;;;5.40;99.90;;;;;;5075865;28;20457;-84
2021/12/20 11:24:31;;;;;;;0.80;0.50;;;5.30;99.90;;;;;;5076556;28;20432;-82
2021/12/20 11:27:07;;;;;;;0.60;0.30;;;5.10;99.90;;;;;;5074064;28;20425;-84
2021/12/20 11:29:35;;;;;;;0.60;0.50;;;4.90;99.90;;;;;;5073773;28;20452;-84
2021/12/20 11:32:03;;;;;;;0.43;0.43;;;4.90;99.90;;;;;;5073372;28;20516;-84
2021/12/20 11:34:31;;;;;;;0.70;0.70;;;4.90;99.90;;;;;;5073930;28;20453;-85
2021/12/20 11:36:58;;;;;;;0.30;0.30;;;4.80;99.90;;;;;;5073126;28;20476;-85
2021/12/20 11:39:25;;;;;;;0.40;0.40;;;4.60;99.90;;;;;;5077707;28;20920;-84
2021/12/20 11:41:52;;;;;;;0.30;0.30;;;4.50;99.90;;;;;;5077374;28;20461;-84
2021/12/20 11:44:22;;;;;;;0.30;0.20;;;4.40;99.90;;;;;;5077173;28;20461;-84
2021/12/20 11:47:00;;;;;;;1.00;0.90;;;4.40;99.90;;;;;;5077382;28;20426;-84
2021/12/20 11:49:28;;;;;;;0.50;0.50;;;4.40;99.90;;;;;;5077408;28;20420;-85
2021/12/20 11:52:18;;;;;;;0.50;0.50;;;4.50;99.90;;;;;;5077247;28;20821;-84
2021/12/20 11:55:15;;;;;;;0.50;0.50;;;4.50;99.90;;;;;;5073309;28;20448;-84
2021/12/20 11:57:50;;;;;;;0.50;0.40;;;4.60;99.90;;;;;;5077078;28;20450;-84
2021/12/20 12:00:27;;;;;;;0.30;0.30;;;4.60;99.90;;;;;;5076803;28;20915;-83
2021/12/20 12:03:01;;;;;;;0.30;0.30;;;4.60;99.90;;;;;;5077107;28;20566;-83
2021/12/20 12:05:40;;;;;;;0.50;0.50;;;4.70;99.90;;;;;;5078282;28;20456;-79
2021/12/20 12:08:33;;;;;;;0.30;0.20;;;4.80;99.90;;;;;;5076140;28;20484;-80
2021/12/20 12:11:16;;;;;;;0.30;0.30;;;5.00;99.90;;;;;;5076617;28;20844;-79
2021/12/20 12:14:18;;;;;;;0.30;0.30;;;5.20;99.90;;;;;;5076085;28;20503;-79
2021/12/20 12:16:55;;;;;;;0.30;0.30;;;5.20;99.90;;;;;;5076071;28;20950;-79
2021/12/20 12:19:55;;;;;;;0.40;0.40;;;5.30;99.90;;;;;;5076560;28;20515;-79
2021/12/20 12:22:36;;;;;;;0.40;0.40;;;5.40;99.90;;;;;;5014471;28;20956;-79
2021/12/20 12:25:07;;;;;;;0.30;0.30;;;5.30;99.90;;;;;;5014424;28;20463;-79
2021/12/20 12:27:36;;;;;;;3.40;0.93;;;5.20;99.90;;;;;;5048877;28;20445;-80
2021/12/20 12:30:27;;;;;;;0.30;0.30;;;5.20;99.90;;;;;;5076153;28;20444;-80
2021/12/20 12:36:39;;;;;;;0.30;0.30;;;5.00;99.90;;;;;;5073528;28;20443;-80
2021/12/20 12:39:10;;;;;;;0.50;0.50;;;4.80;99.90;;;;;;5076323;28;20427;-80
2021/12/20 12:41:46;;;;;;;0.30;0.20;;;4.70;99.90;;;;;;5075575;28;21033;-80
2021/12/20 12:44:32;;;;;;;0.40;0.40;;;4.70;99.90;;;;;;5075541;28;20506;-80
2021/12/20 12:47:07;;;;;;;0.50;0.50;;;4.60;99.90;;;;;;5075522;28;20992;-80
2021/12/20 12:49:56;;;;;;;1.57;1.40;;;4.50;99.90;;;;;;5074787;28;20516;-80
2021/12/20 12:52:45;;;;;;;0.50;0.50;;;4.50;99.90;;;;;;5075786;28;20808;-80
2021/12/20 12:55:15;;;;;;;0.83;0.83;;;4.40;99.90;;;;;;5075702;28;20433;-80
2021/12/20 12:57:45;;;;;;;0.30;0.20;;;4.40;99.90;;;;;;5075549;28;20808;-80
2021/12/20 13:00:15;;;;;;;1.00;0.47;;;4.20;99.90;;;;;;5075606;28;20500;-80
2021/12/20 13:02:45;;;;;;;0.30;0.30;;;4.20;99.90;;;;;;5075424;28;20491;-80
2021/12/20 13:05:15;;;;;;;0.30;0.30;;;4.40;99.90;;;;;;5075484;28;20429;-80
2021/12/20 13:07:45;;;;;;;0.30;0.20;;;4.50;99.90;;;;;;5075467;28;20487;-80
2021/12/20 13:10:14;;;;;;;0.97;0.60;;;4.50;99.90;;;;;;5076242;28;20429;-80
2021/12/20 13:12:49;;;;;;;0.30;0.30;;;4.50;99.90;;;;;;5075106;28;20460;-80
2021/12/20 13:15:23;;;;;;;0.40;0.40;;;4.50;99.90;;;;;;5075366;28;20432;-79
2021/12/20 13:17:53;;;;;;;0.50;0.50;;;4.60;99.90;;;;;;5075273;28;20429;-79
2021/12/20 13:20:26;;;;;;;1.10;0.77;;;4.70;99.90;;;;;;5074904;28;20936;-80
2021/12/20 13:23:01;;;;;;;0.30;0.30;;;4.80;99.90;;;;;;5075068;28;20492;-80
2021/12/20 13:25:36;;;;;;;0.30;0.30;;;4.90;99.90;;;;;;5075081;28;20475;-80
2021/12/20 13:28:04;;;;;;;0.30;0.30;;;4.90;99.90;;;;;;5075110;28;20456;-81
2021/12/20 13:30:33;;;;;;;0.30;0.27;;;4.90;99.90;;;;;;5074742;28;20823;-81
2021/12/20 13:33:00;;;;;;;0.50;0.50;;;4.80;99.90;;;;;;5074971;28;20461;-81
2021/12/20 13:35:29;;;;;;;0.80;0.53;;;4.70;99.90;;;;;;5074606;28;20488;-81